Time;durP1;ratioP1;P1;durP2;ratioP2;P2;SDS_P1;SDS_P2;PMS_P1;PMS_P2;Temp;Humidity;BMP_temperature;BMP_pressure;BME280_temperature;BME280_humidity;BME280_pressure;Samples;Min_cycle;Max_cycle;Signal;HPM_P1;HPM_P2
2023/03/10 00:00:40;;;;;;;5.25;1.55;;;;;;;8.08;60.84;98410.72;5050458;28;20098;-78
2023/03/10 00:03:08;;;;;;;2.75;1.30;;;;;;;8.08;60.56;98407.16;5033719;28;20124;-78
2023/03/10 00:05:37;;;;;;;3.90;1.23;;;;;;;8.08;60.59;98410.72;5049503;28;20037;-78
2023/03/10 00:08:05;;;;;;;4.18;1.50;;;;;;;8.09;60.77;98411.59;5034394;28;20045;-78
2023/03/10 00:10:33;;;;;;;3.17;1.10;;;;;;;8.08;60.92;98401.72;5050281;28;20099;-78
2023/03/10 00:13:02;;;;;;;4.47;1.45;;;;;;;8.09;60.83;98390.63;5051812;28;20045;-78
2023/03/10 00:15:31;;;;;;;2.78;1.00;;;;;;;8.09;60.91;98396.09;5051241;28;20041;-78
2023/03/10 00:17:59;;;;;;;2.03;0.90;;;;;;;8.10;60.46;98403.22;5039870;28;20075;-78
2023/03/10 00:20:27;;;;;;;1.55;0.90;;;;;;;8.09;60.62;98393.38;5056653;28;20069;-77
2023/03/10 00:22:55;;;;;;;1.83;0.90;;;;;;;8.13;60.68;98394.72;5059801;28;20115;-78
2023/03/10 00:25:22;;;;;;;1.90;0.80;;;;;;;8.14;60.80;98387.41;5058171;28;20053;-78
2023/03/10 00:27:51;;;;;;;1.90;0.85;;;;;;;8.17;60.87;98378.88;5060128;28;20033;-77
2023/03/10 00:30:20;;;;;;;1.90;0.70;;;;;;;8.20;60.78;98373.06;5041003;28;20049;-77
2023/03/10 00:32:49;;;;;;;1.92;0.68;;;;;;;8.21;60.96;98394.69;5045371;28;20396;-78
2023/03/10 00:35:17;;;;;;;1.05;0.70;;;;;;;8.24;61.09;98388.03;5034393;28;20056;-78
2023/03/10 00:37:46;;;;;;;1.95;0.88;;;;;;;8.26;60.80;98383.22;5039738;28;20048;-78
2023/03/10 00:40:15;;;;;;;4.22;0.77;;;;;;;8.28;60.83;98390.19;5033802;28;20045;-78
2023/03/10 00:42:43;;;;;;;1.83;0.70;;;;;;;8.30;61.02;98392.75;5053392;28;20036;-77
2023/03/10 00:45:11;;;;;;;1.75;0.73;;;;;;;8.32;60.78;98388.81;5051650;28;20576;-78
2023/03/10 00:47:40;;;;;;;1.10;0.57;;;;;;;8.35;60.85;98393.03;5033468;28;20542;-78
2023/03/10 00:50:10;;;;;;;1.85;0.70;;;;;;;8.38;60.45;98400.03;5026753;28;20049;-79
2023/03/10 00:52:38;;;;;;;1.17;0.70;;;;;;;8.37;60.83;98418.25;5024001;28;20056;-78
2023/03/10 00:55:06;;;;;;;2.35;0.80;;;;;;;8.38;60.53;98430.84;5050661;28;20069;-78
2023/03/10 00:57:37;;;;;;;2.70;0.82;;;;;;;8.40;60.44;98417.06;5033231;28;20041;-78
2023/03/10 01:00:07;;;;;;;2.13;1.02;;;;;;;8.39;60.48;98428.97;5033456;28;20075;-78
2023/03/10 01:02:34;;;;;;;2.03;0.93;;;;;;;8.38;60.73;98421.84;5035926;28;20037;-78
2023/03/10 01:05:04;;;;;;;2.63;0.82;;;;;;;8.41;60.29;98421.47;5036005;28;20045;-78
2023/03/10 01:07:32;;;;;;;2.03;0.80;;;;;;;8.39;60.73;98410.75;5036469;28;20888;-78
2023/03/10 01:10:00;;;;;;;1.90;0.70;;;;;;;8.41;60.88;98422.34;5053441;28;20045;-78
2023/03/10 01:12:28;;;;;;;1.45;0.70;;;;;;;8.43;60.98;98419.41;5045078;28;20404;-78
2023/03/10 01:14:55;;;;;;;2.20;0.68;;;;;;;8.44;60.96;98410.19;5040871;28;20519;-78
2023/03/10 01:17:23;;;;;;;0.65;0.57;;;;;;;8.46;60.68;98416.31;5047970;28;20055;-78
2023/03/10 01:19:51;;;;;;;1.38;0.82;;;;;;;8.49;60.64;98413.25;5044655;28;20045;-78
2023/03/10 01:22:20;;;;;;;0.55;0.40;;;;;;;8.53;60.49;98417.28;5045164;28;20052;-77
2023/03/10 01:24:48;;;;;;;1.60;0.70;;;;;;;8.54;60.62;98419.00;5058567;28;20516;-77
2023/03/10 01:27:16;;;;;;;1.35;0.57;;;;;;;8.56;60.69;98416.94;5041769;28;20504;-77
2023/03/10 01:29:44;;;;;;;1.40;0.60;;;;;;;8.59;61.08;98413.84;5057952;28;20140;-77
2023/03/10 01:32:11;;;;;;;1.60;0.70;;;;;;;8.60;60.68;98412.81;5066095;28;20049;-77
2023/03/10 01:34:39;;;;;;;1.55;0.65;;;;;;;8.63;60.77;98420.63;5057342;28;20069;-77
2023/03/10 01:37:07;;;;;;;0.93;0.50;;;;;;;8.63;60.39;98407.84;5055168;28;20048;-78
2023/03/10 01:39:36;;;;;;;0.95;0.65;;;;;;;8.67;60.98;98411.09;5041657;28;20059;-78
2023/03/10 01:42:04;;;;;;;0.85;0.50;;;;;;;8.67;60.65;98397.44;5040177;28;20564;-78
2023/03/10 01:44:32;;;;;;;1.02;0.60;;;;;;;8.69;60.89;98395.38;5027321;28;20075;-77
2023/03/10 01:47:00;;;;;;;1.55;0.70;;;;;;;8.70;60.62;98405.25;5038728;28;20535;-77
2023/03/10 01:49:39;;;;;;;1.58;0.50;;;;;;;8.73;60.81;98399.44;5050920;28;20404;-77
2023/03/10 01:52:12;;;;;;;0.70;0.40;;;;;;;8.73;60.32;98402.16;5035675;28;20076;-77
2023/03/10 01:54:48;;;;;;;1.13;0.45;;;;;;;8.74;60.28;98401.16;5036398;28;20120;-77
2023/03/10 01:57:20;;;;;;;1.88;0.90;;;;;;;8.73;60.47;98399.44;5037182;28;20040;-77
2023/03/10 01:59:48;;;;;;;2.13;0.60;;;;;;;8.70;60.54;98392.47;5035231;28;20423;-78
2023/03/10 02:02:17;;;;;;;0.82;0.50;;;;;;;8.71;60.45;98393.31;5033435;28;20076;-78
2023/03/10 02:04:48;;;;;;;0.57;0.45;;;;;;;8.71;60.15;98388.72;5033608;28;20048;-78
2023/03/10 02:07:24;;;;;;;1.00;0.60;;;;;;;8.70;60.70;98394.34;5052974;28;20075;-78
2023/03/10 02:09:56;;;;;;;1.45;0.73;;;;;;;8.69;60.44;98395.38;5043051;28;20090;-78
2023/03/10 02:12:24;;;;;;;0.82;0.70;;;;;;;8.67;60.18;98401.00;5032514;28;20052;-78
2023/03/10 02:14:53;;;;;;;1.38;0.70;;;;;;;8.69;60.21;98398.09;5051136;28;20045;-77
2023/03/10 02:17:24;;;;;;;1.23;0.60;;;;;;;8.68;60.50;98390.94;5041370;28;20052;-77
2023/03/10 02:20:19;;;;;;;0.88;0.52;;;;;;;8.68;60.49;98394.50;5040208;28;20584;-77
2023/03/10 02:22:48;;;;;;;2.08;0.70;;;;;;;8.66;60.42;98407.50;5055316;28;20130;-78
2023/03/10 02:25:29;;;;;;;1.02;0.50;;;;;;;8.69;60.71;98403.53;5040909;28;20057;-77
2023/03/10 02:27:59;;;;;;;0.88;0.50;;;;;;;8.68;60.48;98393.66;5031519;28;20148;-77
2023/03/10 02:30:31;;;;;;;1.10;0.50;;;;;;;8.68;60.50;98390.94;5043578;28;20476;-77
2023/03/10 02:33:02;;;;;;;1.73;0.50;;;;;;;8.66;60.38;98393.03;5037961;28;20048;-77
2023/03/10 02:35:30;;;;;;;1.33;0.70;;;;;;;8.64;60.11;98382.28;5052495;28;20041;-77
2023/03/10 02:38:03;;;;;;;;;;;;;;;8.41;61.16;98376.00;5059522;28;20451;-77
2023/03/10 02:40:36;;;;;;;1.10;0.40;;;;;;;8.62;60.57;98378.03;5040945;28;19935;-77
2023/03/10 02:43:18;;;;;;;1.05;0.35;;;;;;;8.61;60.14;98370.88;5041236;28;20072;-78
2023/03/10 02:45:51;;;;;;;0.60;0.43;;;;;;;8.64;60.27;98370.53;5051229;28;20041;-77
2023/03/10 02:48:24;;;;;;;1.88;0.47;;;;;;;8.66;60.52;98372.06;5033391;28;20060;-78
2023/03/10 02:50:56;;;;;;;1.35;0.40;;;;;;;8.65;60.09;98385.88;5040618;28;20072;-78
2023/03/10 02:53:26;;;;;;;0.82;0.40;;;;;;;8.67;60.31;98381.09;5029849;28;20080;-77
2023/03/10 02:55:55;;;;;;;1.55;0.60;;;;;;;8.66;60.27;98380.25;5026153;28;20041;-77
2023/03/10 02:58:25;;;;;;;1.00;0.40;;;;;;;8.68;60.32;98371.84;5032859;28;20045;-77
2023/03/10 03:00:54;;;;;;;1.35;0.50;;;;;;;8.68;60.40;98382.75;5046541;28;20116;-77
2023/03/10 03:03:23;;;;;;;1.65;0.50;;;;;;;8.70;60.25;98380.72;5034471;28;20029;-77
2023/03/10 03:05:52;;;;;;;0.85;0.43;;;;;;;8.69;60.18;98370.81;5024777;28;20563;-77
2023/03/10 03:08:20;;;;;;;1.10;0.43;;;;;;;8.71;60.08;98374.22;5042140;28;20136;-77
2023/03/10 03:10:48;;;;;;;1.45;0.50;;;;;;;8.74;59.97;98373.03;5035710;28;20523;-77
2023/03/10 03:13:16;;;;;;;0.82;0.43;;;;;;;8.75;60.15;98370.13;5034136;28;20380;-77
2023/03/10 03:15:45;;;;;;;1.58;0.50;;;;;;;8.77;59.93;98365.31;5041594;28;20072;-77
2023/03/10 03:18:13;;;;;;;1.33;0.50;;;;;;;8.78;60.11;98358.81;5042000;28;20072;-78
2023/03/10 03:20:42;;;;;;;0.90;0.50;;;;;;;8.78;60.18;98361.56;5046886;28;20061;-77
2023/03/10 03:23:12;;;;;;;1.60;0.55;;;;;;;8.79;59.89;98363.25;5041297;28;20042;-77
2023/03/10 03:25:41;;;;;;;0.85;0.50;;;;;;;8.82;59.70;98372.94;5037568;28;20040;-77
2023/03/10 03:28:12;;;;;;;0.93;0.60;;;;;;;8.81;60.03;98363.06;5039391;28;20120;-77
2023/03/10 03:30:45;;;;;;;1.95;0.70;;;;;;;8.83;60.35;98369.19;5035971;28;20103;-78
2023/03/10 03:33:14;;;;;;;1.85;1.00;;;;;;;8.79;59.89;98363.25;5032788;28;20068;-78
2023/03/10 03:35:43;;;;;;;3.25;1.30;;;;;;;8.83;59.61;98361.88;5033486;28;20428;-78
2023/03/10 03:38:13;;;;;;;2.30;1.15;;;;;;;8.84;60.08;98358.06;5053556;28;20049;-78
2023/03/10 03:40:41;;;;;;;2.13;1.10;;;;;;;8.82;59.76;98359.31;5030969;28;20056;-78
2023/03/10 03:43:12;;;;;;;1.50;0.90;;;;;;;8.85;59.58;98357.06;5037646;28;20559;-78
2023/03/10 03:45:40;;;;;;;2.30;0.77;;;;;;;8.85;59.61;98365.22;5063273;28;20611;-77
2023/03/10 03:48:12;;;;;;;1.13;0.68;;;;;;;8.87;60.24;98367.78;5046874;28;20041;-77
2023/03/10 03:50:41;;;;;;;1.25;0.82;;;;;;;8.84;59.57;98368.13;5064304;28;20043;-77
2023/03/10 03:53:19;;;;;;;1.30;0.80;;;;;;;8.85;60.11;98369.84;5047573;28;20040;-77
2023/03/10 03:55:49;;;;;;;1.85;0.70;;;;;;;8.87;59.92;98359.59;5041050;28;20107;-77
2023/03/10 03:58:20;;;;;;;1.40;0.60;;;;;;;8.84;59.58;98359.97;5037478;28;20041;-77
2023/03/10 04:00:49;;;;;;;2.08;0.80;;;;;;;8.86;59.79;98355.16;5031857;28;20071;-77
2023/03/10 04:03:20;;;;;;;1.42;0.73;;;;;;;8.87;59.68;98351.41;5034507;28;20048;-77
2023/03/10 04:05:51;;;;;;;1.60;0.70;;;;;;;8.87;59.92;98343.22;5031892;28;20053;-78
2023/03/10 04:08:20;;;;;;;1.02;0.65;;;;;;;8.86;59.72;98339.66;5032533;28;20052;-77
2023/03/10 04:10:51;;;;;;;1.92;0.80;;;;;;;8.88;59.85;98331.28;5030880;28;20072;-77
2023/03/10 04:13:20;;;;;;;1.73;0.88;;;;;;;8.87;59.43;98333.19;5033070;28;20041;-77
2023/03/10 04:15:49;;;;;;;2.60;0.82;;;;;;;8.86;59.56;98336.09;5031393;28;20413;-77
2023/03/10 04:18:17;;;;;;;1.92;0.90;;;;;;;8.87;59.67;98337.78;5033272;28;20048;-77
2023/03/10 04:20:46;;;;;;;3.42;0.90;;;;;;;8.87;59.70;98326.88;5037188;28;20574;-77
2023/03/10 04:23:15;;;;;;;2.88;0.95;;;;;;;8.86;59.98;98328.75;5037254;28;20479;-77
2023/03/10 04:25:43;;;;;;;1.42;0.68;;;;;;;8.87;59.57;98322.25;5023643;28;20401;-78
2023/03/10 04:28:12;;;;;;;1.48;0.93;;;;;;;8.87;59.45;98319.53;5036875;28;20294;-78
2023/03/10 04:30:42;;;;;;;2.45;0.90;;;;;;;8.89;59.37;98324.81;5037016;28;20037;-77
2023/03/10 04:33:11;;;;;;;1.63;0.80;;;;;;;8.88;59.46;98320.38;5038417;28;20080;-77
2023/03/10 04:35:41;;;;;;;1.92;0.80;;;;;;;8.89;59.55;98322.09;5032176;28;20041;-77
2023/03/10 04:38:13;;;;;;;1.00;0.60;;;;;;;8.90;59.86;98321.06;5039572;28;20475;-77
2023/03/10 04:40:41;;;;;;;1.70;1.00;;;;;;;8.89;59.41;98328.38;5054454;28;20129;-77
2023/03/10 04:43:10;;;;;;;2.33;0.65;;;;;;;8.89;59.79;98322.94;5058808;28;20041;-77
2023/03/10 04:45:38;;;;;;;1.67;0.70;;;;;;;8.89;59.45;98316.63;5034979;28;20037;-77
2023/03/10 04:48:06;;;;;;;1.70;0.60;;;;;;;8.89;59.77;98316.63;5054730;28;20051;-78
2023/03/10 04:50:33;;;;;;;2.97;0.88;;;;;;;8.89;59.51;98313.91;5056186;28;20053;-78
2023/03/10 04:53:01;;;;;;;2.90;0.90;;;;;;;8.90;59.59;98315.59;5034043;28;20041;-78
2023/03/10 04:55:32;;;;;;;3.88;1.00;;;;;;;8.91;59.46;98315.41;5034372;28;20041;-78
2023/03/10 04:58:02;;;;;;;3.05;1.00;;;;;;;8.90;59.17;98315.59;5031182;28;20077;-77
2023/03/10 05:00:30;;;;;;;2.85;1.15;;;;;;;8.89;59.68;98314.75;5030804;28;20041;-78
2023/03/10 05:02:59;;;;;;;2.80;0.73;;;;;;;8.90;59.33;98310.16;5036559;28;20543;-78
2023/03/10 05:05:27;;;;;;;2.53;0.90;;;;;;;8.90;59.73;98319.19;5053649;28;20049;-78
2023/03/10 05:07:54;;;;;;;2.60;1.20;;;;;;;8.90;59.53;98316.44;5031009;28;20056;-77
2023/03/10 05:10:22;;;;;;;2.53;0.80;;;;;;;8.90;59.44;98307.41;5044486;28;20036;-76
2023/03/10 05:12:51;;;;;;;2.45;1.05;;;;;;;8.91;59.57;98304.50;5052459;28;20045;-77
2023/03/10 05:15:19;;;;;;;2.05;0.88;;;;;;;8.90;59.58;98300.09;5040220;28;20037;-77
2023/03/10 05:17:47;;;;;;;2.03;0.73;;;;;;;8.90;59.65;98289.19;5038861;28;20052;-77
2023/03/10 05:20:17;;;;;;;1.38;0.73;;;;;;;8.89;59.56;98295.66;5054584;28;20052;-77
2023/03/10 05:22:45;;;;;;;2.20;0.82;;;;;;;8.90;59.14;98294.63;5056014;28;20512;-79
2023/03/10 05:25:13;;;;;;;3.38;1.00;;;;;;;8.91;59.23;98298.22;5036578;28;20044;-77
2023/03/10 05:27:41;;;;;;;3.65;0.80;;;;;;;8.90;59.49;98291.91;5041033;28;20120;-78
2023/03/10 05:30:14;;;;;;;3.35;1.40;;;;;;;8.92;59.46;98300.72;5037728;28;20034;-78
2023/03/10 05:32:44;;;;;;;2.95;0.80;;;;;;;8.90;59.17;98301.97;5047529;28;20115;-77
2023/03/10 05:35:13;;;;;;;3.75;1.10;;;;;;;8.91;59.05;98309.97;5062097;28;20053;-77
2023/03/10 05:37:43;;;;;;;4.63;1.08;;;;;;;8.92;59.49;98305.31;5054750;28;20219;-78
2023/03/10 05:40:14;;;;;;;3.50;0.90;;;;;;;8.91;59.28;98299.06;5033630;28;20076;-77
2023/03/10 05:42:43;;;;;;;2.28;0.90;;;;;;;8.89;59.48;98301.13;5034052;28;20045;-77
2023/03/10 05:45:13;;;;;;;4.03;0.95;;;;;;;8.92;59.36;98310.78;5039306;28;20044;-77
2023/03/10 05:47:43;;;;;;;3.53;1.10;;;;;;;8.91;59.31;98296.34;5029293;28;20045;-77
2023/03/10 05:50:13;;;;;;;4.05;1.00;;;;;;;8.91;59.25;98290.88;5034710;28;20041;-78
2023/03/10 05:52:43;;;;;;;3.55;1.08;;;;;;;8.92;59.31;98286.22;5034789;28;20045;-77
2023/03/10 05:55:14;;;;;;;2.72;1.00;;;;;;;8.91;59.25;98288.16;5035324;28;20587;-77
2023/03/10 05:57:42;;;;;;;3.55;1.10;;;;;;;8.90;59.37;98300.09;5037759;28;20071;-77
2023/03/10 06:00:14;;;;;;;2.35;0.90;;;;;;;8.91;59.00;98287.28;5041498;28;20044;-78
2023/03/10 06:02:46;;;;;;;1.73;0.77;;;;;;;8.89;58.98;98297.53;5033470;28;20053;-77
2023/03/10 06:05:14;;;;;;;2.15;0.90;;;;;;;8.90;58.94;98294.63;5054164;28;20093;-77
2023/03/10 06:07:41;;;;;;;3.22;1.00;;;;;;;8.90;59.29;98301.97;5051176;28;20029;-77
2023/03/10 06:10:10;;;;;;;3.55;0.95;;;;;;;8.89;59.41;98292.94;5035807;28;20049;-78
2023/03/10 06:12:38;;;;;;;4.38;0.98;;;;;;;8.88;59.11;98291.22;5041388;28;20560;-77
2023/03/10 06:15:08;;;;;;;2.83;1.10;;;;;;;8.90;58.90;98291.06;5052949;28;20068;-77
2023/03/10 06:17:37;;;;;;;2.63;1.00;;;;;;;8.90;58.94;98281.00;5037453;28;20092;-77
2023/03/10 06:20:06;;;;;;;2.00;0.90;;;;;;;8.89;59.17;98290.19;5032154;28;20464;-78
2023/03/10 06:22:33;;;;;;;2.30;0.88;;;;;;;8.90;58.81;98280.16;5027030;28;20045;-77
2023/03/10 06:25:01;;;;;;;2.17;0.98;;;;;;;8.90;59.15;98285.59;5032252;28;20392;-76
2023/03/10 06:27:29;;;;;;;3.33;1.00;;;;;;;8.90;58.90;98291.91;5051597;28;20041;-77
2023/03/10 06:29:57;;;;;;;4.20;1.08;;;;;;;8.89;59.02;98287.47;5034946;28;20460;-77
2023/03/10 06:32:25;;;;;;;3.83;0.88;;;;;;;8.90;59.11;98285.59;5038772;28;20045;-77
2023/03/10 06:34:54;;;;;;;3.75;1.02;;;;;;;8.90;59.09;98282.88;5029602;28;20052;-78
2023/03/10 06:37:22;;;;;;;3.90;0.90;;;;;;;8.88;58.66;98287.66;5044300;28;20048;-78
2023/03/10 06:39:50;;;;;;;4.10;1.10;;;;;;;8.89;58.83;98290.19;5029272;28;20056;-77
2023/03/10 06:42:18;;;;;;;2.33;0.80;;;;;;;8.89;58.95;98289.34;5052966;28;20053;-78
2023/03/10 06:44:46;;;;;;;2.38;0.98;;;;;;;8.89;59.17;98295.66;5035115;28;20049;-78
2023/03/10 06:47:15;;;;;;;3.17;1.08;;;;;;;8.88;58.89;98293.97;5036389;28;20132;-78
2023/03/10 06:49:43;;;;;;;5.03;1.20;;;;;;;8.90;58.87;98299.25;5037804;28;20048;-78
2023/03/10 06:52:12;;;;;;;2.78;1.20;;;;;;;8.91;59.05;98298.22;5060930;28;20045;-78
2023/03/10 06:54:40;;;;;;;4.03;1.10;;;;;;;8.90;59.11;98294.63;5053080;28;20522;-77
2023/03/10 06:57:08;;;;;;;3.90;1.30;;;;;;;8.89;58.73;98295.66;5031624;28;20045;-78
2023/03/10 06:59:36;;;;;;;2.78;1.10;;;;;;;8.90;58.97;98311.00;5035091;28;20049;-78
2023/03/10 07:02:04;;;;;;;4.25;1.27;;;;;;;8.91;59.15;98311.84;5053000;28;20037;-78
2023/03/10 07:04:31;;;;;;;4.82;1.10;;;;;;;8.91;58.93;98312.69;5057614;28;20582;-78
2023/03/10 07:07:16;;;;;;;4.93;1.52;;;;;;;8.92;59.09;98310.78;5044733;28;20048;-80
2023/03/10 07:09:45;;;;;;;3.38;1.00;;;;;;;8.89;58.71;98317.47;5042017;28;20056;-78
2023/03/10 07:12:13;;;;;;;2.88;1.20;;;;;;;8.91;58.62;98320.88;5043681;28;20091;-79
2023/03/10 07:14:40;;;;;;;2.92;1.10;;;;;;;8.91;59.08;98318.16;5074032;28;20385;-79
2023/03/10 07:17:08;;;;;;;3.53;1.10;;;;;;;8.93;58.74;98316.06;5062645;28;20621;-79
2023/03/10 07:19:37;;;;;;;4.25;1.17;;;;;;;8.94;59.11;98320.50;5054232;28;20088;-79
2023/03/10 07:22:04;;;;;;;3.63;1.10;;;;;;;8.94;59.26;98327.81;5041284;28;20045;-79
2023/03/10 07:24:34;;;;;;;2.45;1.20;;;;;;;8.94;59.21;98325.94;5053626;28;20041;-79
2023/03/10 07:27:02;;;;;;;3.38;1.00;;;;;;;8.94;59.25;98328.66;5056299;28;20059;-79
2023/03/10 07:29:30;;;;;;;1.98;1.10;;;;;;;8.94;58.93;98330.53;5037133;28;20068;-79
2023/03/10 07:31:58;;;;;;;3.55;1.25;;;;;;;8.95;59.17;98315.88;5037818;28;20037;-79
2023/03/10 07:34:26;;;;;;;1.98;1.00;;;;;;;8.96;59.05;98318.44;5036505;28;20051;-79
2023/03/10 07:36:54;;;;;;;2.95;1.48;;;;;;;8.96;59.45;98326.63;5050264;28;20041;-79
2023/03/10 07:39:22;;;;;;;4.70;1.20;;;;;;;8.97;59.46;98327.47;5036224;28;20071;-79
2023/03/10 07:41:51;;;;;;;3.40;1.27;;;;;;;8.98;59.02;98327.28;5037677;28;20052;-78
2023/03/10 07:44:18;;;;;;;4.88;1.40;;;;;;;8.99;59.14;98330.84;5061336;28;20051;-79
2023/03/10 07:46:46;;;;;;;3.88;1.50;;;;;;;8.99;59.09;98339.03;5064107;28;20044;-79
2023/03/10 07:49:14;;;;;;;5.05;1.30;;;;;;;9.00;59.03;98335.28;5037833;28;20045;-78
2023/03/10 07:51:42;;;;;;;3.15;1.65;;;;;;;8.99;59.50;98328.97;5051872;28;20060;-78
2023/03/10 07:54:12;;;;;;;2.95;1.48;;;;;;;9.02;59.43;98331.31;5041903;28;20059;-78
2023/03/10 07:56:40;;;;;;;4.80;1.85;;;;;;;9.02;59.70;98325.84;5050608;28;20044;-77
2023/03/10 07:59:09;;;;;;;4.43;1.33;;;;;;;9.04;59.71;98333.88;5051739;28;20519;-77
2023/03/10 08:01:37;;;;;;;3.38;1.40;;;;;;;9.05;59.41;98344.59;5051916;28;20055;-78
2023/03/10 08:04:06;;;;;;;4.07;1.60;;;;;;;9.06;59.86;98348.19;5051360;28;20048;-77
2023/03/10 08:06:35;;;;;;;3.42;1.40;;;;;;;9.08;59.45;98341.47;5036273;28;20096;-78
2023/03/10 08:09:03;;;;;;;3.42;1.55;;;;;;;9.09;59.36;98343.19;5032460;28;20048;-78
2023/03/10 08:11:31;;;;;;;4.07;1.60;;;;;;;9.10;59.28;98344.88;5051370;28;20072;-78
2023/03/10 08:13:59;;;;;;;3.35;1.80;;;;;;;9.12;59.40;98346.56;5057284;28;20057;-78
2023/03/10 08:16:28;;;;;;;3.70;1.60;;;;;;;9.14;59.65;98345.38;5035017;28;20053;-78
2023/03/10 08:18:56;;;;;;;3.38;1.60;;;;;;;9.14;59.77;98341.78;5039308;28;20049;-78
2023/03/10 08:21:24;;;;;;;3.83;1.38;;;;;;;9.16;59.59;98346.03;5034281;28;20041;-78
2023/03/10 08:23:52;;;;;;;3.47;1.42;;;;;;;9.17;59.72;98347.69;5033883;28;20045;-78
2023/03/10 08:26:20;;;;;;;4.07;1.50;;;;;;;9.19;59.29;98342.06;5035056;28;20041;-78
2023/03/10 08:28:48;;;;;;;3.83;1.42;;;;;;;9.20;59.41;98352.78;5053639;28;20092;-78
2023/03/10 08:31:18;;;;;;;3.45;1.23;;;;;;;9.24;59.47;98356.00;5054895;28;20045;-78
2023/03/10 08:33:48;;;;;;;4.25;1.35;;;;;;;9.24;59.19;98358.75;5029482;28;20052;-78
2023/03/10 08:36:18;;;;;;;3.42;1.30;;;;;;;9.25;59.26;98350.34;5033754;28;20044;-78
2023/03/10 08:38:46;;;;;;;5.00;1.20;;;;;;;9.26;59.47;98351.19;5037535;28;20045;-78
2023/03/10 08:41:16;;;;;;;3.38;1.20;;;;;;;9.28;59.30;98352.72;5040152;28;20060;-78
2023/03/10 08:43:44;;;;;;;3.83;1.27;;;;;;;9.29;59.58;98350.81;5045125;28;20056;-77
2023/03/10 08:46:16;;;;;;;4.70;1.27;;;;;;;9.29;59.53;98353.56;5053810;28;20287;-77
2023/03/10 08:48:45;;;;;;;5.75;1.30;;;;;;;9.31;59.62;98346.88;5046614;28;20045;-78
2023/03/10 08:51:15;;;;;;;3.67;1.20;;;;;;;9.34;59.74;98343.75;5039259;28;20121;-77
2023/03/10 08:53:45;;;;;;;3.45;1.13;;;;;;;9.37;59.49;98353.47;5064439;28;20082;-77
2023/03/10 08:56:14;;;;;;;2.45;0.98;;;;;;;9.38;59.21;98356.06;5068280;28;20101;-78
2023/03/10 08:58:42;;;;;;;4.28;1.30;;;;;;;9.39;59.68;98354.16;5040559;28;20052;-78
2023/03/10 09:01:10;;;;;;;4.07;1.63;;;;;;;9.41;59.19;98343.91;5053664;28;20061;-78
2023/03/10 09:03:40;;;;;;;3.17;1.60;;;;;;;9.44;59.29;98347.09;5033162;28;20100;-78
2023/03/10 09:06:09;;;;;;;3.75;1.33;;;;;;;9.46;59.51;98352.38;5051959;28;20060;-79
2023/03/10 09:08:40;;;;;;;2.65;1.08;;;;;;;9.49;59.79;98351.16;5050720;28;20040;-79
2023/03/10 09:11:09;;;;;;;2.70;1.10;;;;;;;9.50;59.61;98355.56;5053272;28;20361;-78
2023/03/10 09:13:36;;;;;;;3.42;1.25;;;;;;;9.53;59.10;98361.50;5018368;28;20041;-78
2023/03/10 09:16:05;;;;;;;3.95;1.40;;;;;;;9.54;59.29;98357.75;5037391;28;20116;-78
2023/03/10 09:18:33;;;;;;;3.13;1.15;;;;;;;9.56;59.15;98357.56;5046225;28;20040;-79
2023/03/10 09:21:01;;;;;;;3.92;1.33;;;;;;;9.58;59.48;98356.31;5040284;28;20127;-79
2023/03/10 09:23:29;;;;;;;5.93;1.35;;;;;;;9.60;59.23;98347.94;5061842;28;20049;-79
2023/03/10 09:25:58;;;;;;;3.42;1.10;;;;;;;9.64;59.08;98363.78;5059894;28;20049;-78
2023/03/10 09:28:26;;;;;;;2.85;1.10;;;;;;;9.66;59.56;98361.69;5045219;28;20062;-79
2023/03/10 09:30:53;;;;;;;3.63;1.30;;;;;;;9.68;59.33;98362.34;5054214;28;20045;-78
2023/03/10 09:33:22;;;;;;;4.10;1.38;;;;;;;9.72;59.34;98371.88;5059924;28;20045;-78
2023/03/10 09:35:51;;;;;;;5.88;1.70;;;;;;;9.75;59.21;98359.69;5054422;28;20471;-78
2023/03/10 09:38:33;;;;;;;4.45;1.08;;;;;;;9.75;59.08;98366.00;5050871;28;20051;-78
2023/03/10 09:41:21;;;;;;;6.13;1.30;;;;;;;9.83;58.56;98368.63;5041061;28;20045;-78
2023/03/10 09:43:59;;;;;;;5.10;1.27;;;;;;;9.86;58.25;98364.69;5052824;28;20076;-78
2023/03/10 09:46:36;;;;;;;4.20;1.20;;;;;;;9.89;58.73;98358.00;5053979;28;20069;-78
2023/03/10 09:49:12;;;;;;;5.18;1.15;;;;;;;9.91;58.40;98364.94;5051052;28;20045;-78
2023/03/10 09:51:45;;;;;;;4.78;1.17;;;;;;;9.93;58.30;98364.75;5035419;28;20099;-78
2023/03/10 09:54:32;;;;;;;3.70;1.10;;;;;;;9.96;57.98;98361.66;5034378;28;20045;-78
2023/03/10 09:57:03;;;;;;;4.35;1.30;;;;;;;9.98;58.52;98356.84;5048126;28;20147;-77
2023/03/10 09:59:35;;;;;;;4.13;1.17;;;;;;;10.01;58.04;98362.78;5036234;28;20126;-78
2023/03/10 10:02:16;;;;;;;4.80;1.10;;;;;;;10.04;57.60;98358.81;5055986;28;20047;-78
2023/03/10 10:04:47;;;;;;;4.30;1.52;;;;;;;10.06;57.88;98356.75;5041576;28;20104;-78
2023/03/10 10:07:20;;;;;;;3.25;1.08;;;;;;;10.08;57.99;98352.75;5037877;28;20409;-77
2023/03/10 10:09:54;;;;;;;4.25;1.10;;;;;;;10.11;58.27;98362.47;5055930;28;20135;-78
2023/03/10 10:12:25;;;;;;;4.45;1.10;;;;;;;10.17;58.09;98373.47;5036765;28;20124;-78
2023/03/10 10:14:57;;;;;;;5.13;1.05;;;;;;;10.20;57.70;98361.31;5033873;28;20048;-78
2023/03/10 10:17:46;;;;;;;3.85;1.40;;;;;;;10.24;57.10;98355.25;5064231;28;20337;-78
2023/03/10 10:20:33;;;;;;;4.63;1.30;;;;;;;10.27;57.98;98351.31;5054425;28;20045;-78
2023/03/10 10:23:01;;;;;;;4.10;1.50;;;;;;;10.29;57.65;98349.22;5029263;28;20049;-78
2023/03/10 10:25:31;;;;;;;4.32;1.40;;;;;;;10.36;58.13;98357.50;5051294;28;20049;-78
2023/03/10 10:28:05;;;;;;;5.00;1.30;;;;;;;10.38;57.85;98353.53;5053936;28;20472;-77
2023/03/10 10:30:36;;;;;;;6.00;1.80;;;;;;;10.43;57.71;98350.22;5050722;28;20071;-77
2023/03/10 10:33:06;;;;;;;4.97;1.73;;;;;;;10.45;57.85;98361.81;5045906;28;20037;-77
2023/03/10 10:35:36;;;;;;;3.78;1.30;;;;;;;10.48;57.27;98354.03;5050312;28;20052;-78
2023/03/10 10:38:06;;;;;;;4.53;1.50;;;;;;;10.52;57.43;98362.72;5034157;28;20048;-76
2023/03/10 10:40:36;;;;;;;3.35;1.25;;;;;;;10.52;57.54;98363.56;5033253;28;20040;-78
2023/03/10 10:43:06;;;;;;;4.45;1.30;;;;;;;10.57;57.34;98366.59;5034122;28;20044;-78
2023/03/10 10:45:36;;;;;;;2.15;1.00;;;;;;;10.57;57.07;98366.59;5051019;28;20048;-77
2023/03/10 10:48:05;;;;;;;2.83;1.00;;;;;;;10.58;56.53;98367.44;5051220;28;20041;-78
2023/03/10 10:50:34;;;;;;;2.58;0.90;;;;;;;10.59;56.51;98359.03;5032138;28;20041;-78
2023/03/10 10:53:19;;;;;;;4.00;1.10;;;;;;;10.59;55.96;98358.19;5038103;28;20049;-77
2023/03/10 10:56:00;;;;;;;3.90;0.93;;;;;;;10.58;55.29;98357.34;5032852;28;20045;-78
2023/03/10 10:58:32;;;;;;;2.95;1.00;;;;;;;10.58;55.80;98353.75;5051147;28;20041;-77
2023/03/10 11:01:02;;;;;;;3.45;1.40;;;;;;;10.55;56.19;98354.16;5031522;28;20044;-78
2023/03/10 11:03:33;;;;;;;2.78;1.10;;;;;;;10.58;56.07;98360.06;5051429;28;20049;-78
2023/03/10 11:06:01;;;;;;;4.18;1.02;;;;;;;10.56;56.13;98353.13;5032726;28;20087;-78
2023/03/10 11:08:36;;;;;;;2.65;0.90;;;;;;;10.58;55.62;98353.75;5049296;28;20045;-78
2023/03/10 11:11:18;;;;;;;2.83;0.80;;;;;;;10.57;55.67;98369.31;5050930;28;20049;-78
2023/03/10 11:14:04;;;;;;;1.90;0.57;;;;;;;10.56;55.54;98364.06;5050976;28;20500;-78
2023/03/10 11:16:43;;;;;;;1.60;0.77;;;;;;;10.54;55.49;98374.34;5033442;28;20139;-78
2023/03/10 11:19:21;;;;;;;2.35;0.80;;;;;;;10.51;55.54;98363.75;5050487;28;20059;-78
2023/03/10 11:21:54;;;;;;;1.58;0.82;;;;;;;10.49;55.90;98361.22;5034277;28;20064;-78
2023/03/10 11:24:31;;;;;;;3.20;1.10;;;;;;;10.48;55.74;98364.16;5033049;28;20033;-78
2023/03/10 11:27:07;;;;;;;1.58;0.82;;;;;;;10.44;56.26;98369.16;5036280;28;20092;-78
2023/03/10 11:29:55;;;;;;;2.17;1.00;;;;;;;10.42;56.23;98356.72;5036125;28;20127;-79
2023/03/10 11:32:28;;;;;;;3.20;1.05;;;;;;;10.40;55.94;98375.22;5050975;28;20092;-78
2023/03/10 11:34:57;;;;;;;4.55;1.40;;;;;;;10.36;56.40;98374.75;5037001;28;20072;-78
2023/03/10 11:37:30;;;;;;;2.83;1.27;;;;;;;10.36;56.14;98371.16;5064462;28;20520;-78
2023/03/10 11:40:14;;;;;;;2.22;1.10;;;;;;;10.33;56.66;98375.13;5033738;28;20534;-78
2023/03/10 11:42:48;;;;;;;4.13;1.10;;;;;;;10.31;56.15;98369.03;5053556;28;20045;-78
2023/03/10 11:45:27;;;;;;;3.55;1.02;;;;;;;10.29;56.74;98368.38;5035513;28;20056;-78
2023/03/10 11:48:05;;;;;;;2.40;1.10;;;;;;;10.26;56.49;98368.75;5049059;28;20071;-79
2023/03/10 11:50:43;;;;;;;2.65;1.42;;;;;;;10.22;56.28;98362.84;5038311;28;20045;-79
2023/03/10 11:53:17;;;;;;;2.13;0.70;;;;;;;10.20;56.76;98361.31;5055235;28;20037;-79
2023/03/10 11:55:45;;;;;;;3.35;0.90;;;;;;;10.17;56.59;98353.50;5054885;28;20060;-79